createdAt,value
2022-11-29T00:00:48.753Z,-0.54
2022-11-29T00:03:34.051Z,-0.52
2022-11-29T00:06:26.500Z,-0.51
2022-11-29T00:09:12.911Z,-0.49
2022-11-29T00:12:12.733Z,-0.51
2022-11-29T00:14:57.380Z,-0.51
2022-11-29T00:17:42.129Z,-0.51
2022-11-29T00:20:26.829Z,-0.51
2022-11-29T00:23:11.667Z,-0.52
2022-11-29T00:26:06.146Z,-0.51
2022-11-29T00:28:51.114Z,-0.53
2022-11-29T00:31:35.633Z,-0.56
2022-11-29T00:34:20.299Z,-0.60
2022-11-29T00:37:05.225Z,-0.62
2022-11-29T00:39:50.146Z,-0.66
2022-11-29T00:42:34.715Z,-0.68
2022-11-29T00:45:19.551Z,-0.68
2022-11-29T00:48:04.594Z,-0.71
2022-11-29T00:50:49.240Z,-0.70
2022-11-29T00:53:34.883Z,-0.70
2022-11-29T00:56:19.682Z,-0.68
2022-11-29T00:59:04.362Z,-0.66
2022-11-29T01:01:49.477Z,-0.68
2022-11-29T01:04:34.269Z,-0.69
2022-11-29T01:07:19.456Z,-0.67
2022-11-29T01:10:04.805Z,-0.66
2022-11-29T01:12:49.759Z,-0.64
2022-11-29T01:15:35.484Z,-0.64
2022-11-29T01:18:20.360Z,-0.64
2022-11-29T01:21:11.697Z,-0.62
2022-11-29T01:23:56.890Z,-0.62
2022-11-29T01:26:41.373Z,-0.63
2022-11-29T01:29:26.154Z,-0.64
2022-11-29T01:32:12.111Z,-0.65
2022-11-29T01:34:57.052Z,-0.62
2022-11-29T01:37:41.960Z,-0.62
2022-11-29T01:40:26.753Z,-0.62
2022-11-29T01:43:20.404Z,-0.61
2022-11-29T01:46:05.297Z,-0.63
2022-11-29T01:48:57.286Z,-0.59
2022-11-29T01:51:55.365Z,-0.63
2022-11-29T01:54:47.526Z,-0.63
2022-11-29T01:57:34.623Z,-0.60
2022-11-29T02:00:19.884Z,-0.61
2022-11-29T02:03:11.883Z,-0.58
2022-11-29T02:05:56.596Z,-0.58
2022-11-29T02:08:42.898Z,-0.59
2022-11-29T02:12:02.094Z,-0.58
2022-11-29T02:15:04.594Z,-0.59
2022-11-29T02:18:03.686Z,-0.61
2022-11-29T02:21:06.810Z,-0.61
2022-11-29T02:24:28.908Z,-0.60
2022-11-29T02:27:16.672Z,-0.58
2022-11-29T02:30:16.394Z,-0.56
2022-11-29T02:33:22.128Z,-0.55
2022-11-29T02:36:29.689Z,-0.58
2022-11-29T02:39:41.957Z,-0.58
2022-11-29T02:42:29.395Z,-0.57
2022-11-29T02:45:41.033Z,-0.58
2022-11-29T02:48:35.478Z,-0.62
2022-11-29T02:51:32.193Z,-0.59
2022-11-29T02:54:41.436Z,-0.58
2022-11-29T02:57:56.473Z,-0.53
2022-11-29T03:00:56.583Z,-0.53
2022-11-29T03:03:54.776Z,-0.52
2022-11-29T03:06:57.914Z,-0.52
2022-11-29T03:10:32.106Z,-0.51
2022-11-29T03:13:42.484Z,-0.51
2022-11-29T03:16:50.799Z,-0.52
2022-11-29T03:19:51.073Z,-0.55
2022-11-29T03:23:08.026Z,-0.55
2022-11-29T03:25:55.928Z,-0.52
2022-11-29T03:28:49.431Z,-0.52
2022-11-29T03:31:38.597Z,-0.52
2022-11-29T03:34:32.095Z,-0.51
2022-11-29T03:37:21.991Z,-0.49
2022-11-29T03:40:09.013Z,-0.47
2022-11-29T03:43:00.581Z,-0.46
2022-11-29T03:46:02.596Z,-0.42
2022-11-29T03:48:55.963Z,-0.39
2022-11-29T03:51:51.442Z,-0.39
2022-11-29T03:54:48.209Z,-0.39
2022-11-29T03:58:04.813Z,-0.39
2022-11-29T04:00:49.433Z,-0.37
2022-11-29T04:03:55.799Z,-0.37
2022-11-29T04:06:50.091Z,-0.37
2022-11-29T04:09:59.663Z,-0.37
2022-11-29T04:13:15.088Z,-0.35
2022-11-29T04:16:21.443Z,-0.34
2022-11-29T04:19:22.519Z,-0.33
2022-11-29T04:22:26.107Z,-0.31
2022-11-29T04:25:35.186Z,-0.31
2022-11-29T04:28:57.107Z,-0.29
2022-11-29T04:32:11.573Z,-0.28
2022-11-29T04:35:28.729Z,-0.27
2022-11-29T04:38:44.755Z,-0.26
2022-11-29T04:42:06.123Z,-0.25
2022-11-29T04:45:04.207Z,-0.26
2022-11-29T04:48:14.861Z,-0.23
2022-11-29T04:51:26.627Z,-0.22
2022-11-29T04:54:29.878Z,-0.20
2022-11-29T04:57:34.335Z,-0.20
2022-11-29T05:00:22.105Z,-0.19
2022-11-29T05:03:15.879Z,-0.17
2022-11-29T05:06:44.372Z,-0.19
2022-11-29T05:09:52.426Z,-0.17
2022-11-29T05:13:15.577Z,-0.14
2022-11-29T05:16:42.583Z,-0.14
2022-11-29T05:20:18.284Z,-0.11
2022-11-29T05:23:27.392Z,-0.11
2022-11-29T05:26:27.221Z,-0.12
2022-11-29T06:54:40.860Z,0.35
2022-11-29T06:57:44.065Z,0.41
2022-11-29T07:00:58.558Z,0.42
2022-11-29T07:04:12.201Z,0.44
2022-11-29T07:07:35.547Z,0.47
2022-11-29T07:13:30.246Z,0.53
2022-11-29T07:16:45.417Z,0.52
2022-11-29T07:19:50.720Z,0.56
2022-11-29T07:23:25.356Z,0.58
2022-11-29T07:26:59.719Z,0.63
2022-11-29T07:30:05.667Z,0.68
2022-11-29T07:33:00.336Z,0.70
2022-11-29T07:36:19.920Z,0.73
2022-11-29T07:40:05.278Z,0.74
2022-11-29T07:43:35.923Z,0.74
2022-11-29T07:46:37.023Z,0.78
2022-11-29T07:49:42.514Z,0.79
2022-11-29T07:52:39.269Z,0.80
2022-11-29T07:55:49.950Z,0.78
2022-11-29T07:58:41.586Z,0.82
2022-11-29T08:01:44.524Z,0.82
2022-11-29T08:04:45.750Z,0.82
2022-11-29T08:07:49.813Z,0.88
2022-11-29T08:10:44.033Z,0.89
2022-11-29T08:13:40.757Z,0.98
2022-11-29T08:16:34.159Z,1.00
2022-11-29T08:19:18.811Z,1.02
2022-11-29T08:22:03.797Z,1.00
2022-11-29T08:24:52.208Z,1.02
2022-11-29T08:27:52.069Z,1.05
2022-11-29T08:30:37.387Z,1.08
2022-11-29T08:33:22.401Z,1.12
2022-11-29T08:36:18.473Z,1.14
2022-11-29T08:39:29.632Z,1.18
2022-11-29T08:43:10.821Z,1.29
2022-11-29T08:47:03.889Z,1.31
2022-11-29T08:50:30.228Z,1.35
2022-11-29T08:53:45.545Z,1.39
2022-11-29T09:04:15.300Z,1.45
2022-11-29T09:07:02.306Z,1.53
2022-11-29T09:09:47.770Z,1.56
2022-11-29T09:13:06.526Z,1.61
2022-11-29T09:16:21.960Z,1.66
2022-11-29T09:19:54.787Z,1.61
2022-11-29T09:22:45.547Z,1.62
2022-11-29T09:25:33.515Z,1.61
2022-11-29T09:28:18.483Z,1.57
2022-11-29T09:31:04.666Z,1.60
2022-11-29T09:33:49.598Z,1.59
2022-11-29T09:36:34.613Z,1.61
2022-11-29T09:39:45.201Z,1.64
2022-11-29T09:43:06.384Z,1.61
2022-11-29T09:46:02.363Z,1.60
2022-11-29T09:53:01.708Z,1.53
2022-11-29T09:56:00.771Z,1.56
2022-11-29T09:58:57.051Z,1.53
2022-11-29T10:01:58.118Z,1.55
2022-11-29T10:04:52.558Z,1.64
2022-11-29T10:07:47.329Z,1.63
2022-11-29T10:11:05.780Z,1.63
2022-11-29T10:13:59.192Z,1.60
2022-11-29T10:16:50.459Z,1.60
2022-11-29T10:19:50.314Z,1.62
2022-11-29T10:23:01.325Z,1.66
2022-11-29T10:25:54.968Z,1.72
2022-11-29T10:28:50.887Z,1.83
2022-11-29T10:31:42.575Z,1.91
2022-11-29T10:34:30.419Z,1.97
2022-11-29T10:37:35.371Z,2.00
2022-11-29T10:41:04.584Z,2.03
2022-11-29T10:44:48.890Z,2.06
2022-11-29T10:54:59.445Z,1.65
2022-11-29T10:58:09.134Z,1.63
2022-11-29T11:01:16.453Z,1.68
2022-11-29T11:04:32.408Z,1.75
2022-11-29T11:07:34.413Z,1.75
2022-11-29T11:10:28.466Z,1.78
2022-11-29T11:13:35.602Z,1.83
2022-11-29T11:16:37.801Z,1.90
2022-11-29T11:19:36.472Z,1.89
2022-11-29T11:22:39.254Z,1.82
2022-11-29T11:25:37.100Z,1.81
2022-11-29T11:28:28.360Z,1.85
2022-11-29T11:34:34.754Z,1.84
2022-11-29T11:37:29.897Z,1.94
2022-11-29T11:40:33.888Z,1.98
2022-11-29T11:43:21.215Z,2.03
2022-11-29T11:46:08.123Z,2.07
2022-11-29T11:48:53.455Z,2.05
2022-11-29T11:51:42.266Z,1.99
2022-11-29T11:54:28.839Z,1.96
2022-11-29T11:57:17.740Z,1.90
2022-11-29T12:00:06.998Z,1.80
2022-11-29T12:03:58.525Z,1.75
2022-11-29T12:06:51.403Z,1.72
2022-11-29T12:09:42.528Z,1.75
2022-11-29T12:12:40.732Z,1.73
2022-11-29T12:15:33.892Z,1.76
2022-11-29T12:18:41.671Z,1.77
2022-11-29T12:21:32.620Z,1.75
2022-11-29T12:24:40.058Z,1.78
2022-11-29T12:27:34.393Z,1.67
2022-11-29T12:30:25.530Z,1.59
2022-11-29T12:33:29.771Z,1.51
2022-11-29T12:36:46.915Z,1.41
2022-11-29T12:39:50.309Z,1.29
2022-11-29T12:42:59.190Z,1.17
2022-11-29T12:45:45.057Z,1.14
2022-11-29T12:48:39.641Z,1.12
2022-11-29T12:51:42.786Z,1.07
2022-11-29T12:54:42.495Z,1.00
2022-11-29T12:57:39.202Z,0.97
2022-11-29T13:00:28.493Z,0.91
2022-11-29T13:03:26.873Z,0.87
2022-11-29T13:06:47.071Z,0.85
2022-11-29T13:09:47.516Z,0.81
2022-11-29T13:12:41.341Z,0.75
2022-11-29T13:15:46.075Z,0.75
2022-11-29T13:18:44.671Z,0.74
2022-11-29T13:21:44.133Z,0.70
2022-11-29T13:24:50.542Z,0.73
2022-11-29T13:27:41.989Z,0.73
2022-11-29T13:30:27.135Z,0.73
2022-11-29T13:33:16.379Z,0.70
2022-11-29T13:36:38.191Z,0.68
2022-11-29T13:39:44.526Z,0.66
2022-11-29T13:42:57.260Z,0.64
2022-11-29T13:46:26.676Z,0.60
2022-11-29T13:49:39.834Z,0.58
2022-11-29T13:52:38.836Z,0.59
2022-11-29T13:55:30.701Z,0.58
2022-11-29T13:58:33.334Z,0.55
2022-11-29T14:01:18.228Z,0.49
2022-11-29T14:04:06.784Z,0.47
2022-11-29T14:07:02.645Z,0.43
2022-11-29T14:10:06.248Z,0.41
2022-11-29T14:12:55.233Z,0.39
2022-11-29T14:15:41.454Z,0.37
2022-11-29T14:18:41.254Z,0.37
2022-11-29T14:21:45.917Z,0.33
2022-11-29T14:24:36.550Z,0.31
2022-11-29T14:27:21.459Z,0.31
2022-11-29T14:30:24.828Z,0.29
2022-11-29T14:33:28.288Z,0.28
2022-11-29T14:36:54.245Z,0.27
2022-11-29T14:39:46.363Z,0.26
2022-11-29T14:42:31.347Z,0.28
2022-11-29T14:45:27.622Z,0.28
2022-11-29T14:48:31.158Z,0.25
2022-11-29T14:51:18.789Z,0.22
2022-11-29T14:54:15.347Z,0.21
2022-11-29T14:57:38.546Z,0.19
2022-11-29T15:00:29.422Z,0.18
2022-11-29T15:03:20.850Z,0.19
2022-11-29T15:06:26.232Z,0.19
2022-11-29T15:09:20.315Z,0.17
2022-11-29T15:12:13.848Z,0.19
2022-11-29T15:15:35.716Z,0.17
2022-11-29T15:19:05.201Z,0.18
2022-11-29T15:22:17.474Z,0.22
2022-11-29T15:25:11.529Z,0.21
2022-11-29T15:27:58.456Z,0.20
2022-11-29T15:30:43.556Z,0.18
2022-11-29T15:33:28.919Z,0.18
2022-11-29T15:36:23.572Z,0.15
2022-11-29T15:39:24.794Z,0.14
2022-11-29T15:42:13.041Z,0.14
2022-11-29T15:44:57.956Z,0.11
2022-11-29T15:47:42.843Z,0.12
2022-11-29T15:50:33.145Z,0.11
2022-11-29T15:54:11.646Z,0.09
2022-11-29T15:57:13.126Z,0.07
2022-11-29T16:00:01.658Z,0.09
2022-11-29T16:02:57.518Z,0.06
2022-11-29T16:05:42.612Z,0.06
2022-11-29T16:08:33.559Z,0.05
2022-11-29T16:11:22.907Z,0.03
2022-11-29T16:14:10.539Z,0.02
2022-11-29T16:17:00.033Z,0.02
2022-11-29T16:19:46.306Z,0.00
2022-11-29T16:22:31.846Z,0.02
2022-11-29T16:25:19.779Z,0.00
2022-11-29T16:28:05.379Z,0.02
2022-11-29T16:30:50.466Z,0.01
2022-11-29T16:33:37.672Z,0.03
2022-11-29T16:36:25.949Z,0.01
2022-11-29T16:39:20.082Z,-0.02
2022-11-29T16:42:24.650Z,-0.02
2022-11-29T16:45:29.169Z,-0.03
2022-11-29T16:48:29.030Z,-0.04
2022-11-29T16:51:14.515Z,-0.04
2022-11-29T16:54:45.051Z,-0.04
2022-11-29T16:57:31.190Z,-0.04
2022-11-29T17:00:31.934Z,-0.05
2022-11-29T17:03:18.479Z,-0.06
2022-11-29T17:06:03.161Z,-0.07
2022-11-29T17:08:53.774Z,-0.07
2022-11-29T17:11:38.400Z,-0.10
2022-11-29T17:14:23.476Z,-0.11
2022-11-29T17:17:13.806Z,-0.12
2022-11-29T17:19:58.317Z,-0.14
2022-11-29T17:22:43.275Z,-0.14
2022-11-29T17:25:28.422Z,-0.15
2022-11-29T17:28:13.289Z,-0.14
2022-11-29T17:30:57.853Z,-0.15
2022-11-29T17:33:43.290Z,-0.15
2022-11-29T17:36:27.830Z,-0.14
2022-11-29T17:39:14.885Z,-0.17
2022-11-29T17:41:59.478Z,-0.16
2022-11-29T17:44:44.559Z,-0.17
2022-11-29T17:47:29.460Z,-0.18
2022-11-29T17:50:14.177Z,-0.17
2022-11-29T17:52:58.913Z,-0.20
2022-11-29T17:55:43.302Z,-0.21
2022-11-29T17:58:27.962Z,-0.22
2022-11-29T18:01:19.362Z,-0.23
2022-11-29T18:04:06.140Z,-0.23
2022-11-29T18:06:50.996Z,-0.23
2022-11-29T18:09:35.910Z,-0.25
2022-11-29T18:12:21.801Z,-0.22
2022-11-29T18:15:06.865Z,-0.24
2022-11-29T18:17:51.258Z,-0.24
2022-11-29T18:20:35.896Z,-0.22
2022-11-29T18:23:20.166Z,-0.21
2022-11-29T18:26:12.228Z,-0.24
2022-11-29T18:28:58.317Z,-0.21
2022-11-29T18:31:44.495Z,-0.21
2022-11-29T18:34:29.461Z,-0.21
2022-11-29T18:37:23.365Z,-0.24
2022-11-29T18:40:18.587Z,-0.26
2022-11-29T18:43:03.636Z,-0.24
2022-11-29T18:45:48.674Z,-0.24
2022-11-29T18:48:33.564Z,-0.29
2022-11-29T18:51:19.927Z,-0.24
2022-11-29T18:54:05.665Z,-0.27
2022-11-29T18:56:51.129Z,-0.27
2022-11-29T18:59:35.882Z,-0.26
2022-11-29T19:02:21.046Z,-0.24
2022-11-29T19:05:05.929Z,-0.22
2022-11-29T19:07:50.600Z,-0.23
2022-11-29T19:10:36.792Z,-0.20
2022-11-29T19:13:21.455Z,-0.20
2022-11-29T19:16:12.862Z,-0.21
2022-11-29T19:18:59.696Z,-0.23
2022-11-29T19:21:44.514Z,-0.27
2022-11-29T19:24:29.315Z,-0.27
2022-11-29T19:27:14.011Z,-0.27
2022-11-29T19:29:58.702Z,-0.24
2022-11-29T19:32:43.516Z,-0.26
2022-11-29T19:35:28.334Z,-0.25
2022-11-29T19:38:14.790Z,-0.27
2022-11-29T19:40:59.174Z,-0.28
2022-11-29T19:43:44.658Z,-0.26
2022-11-29T19:46:41.136Z,-0.28
2022-11-29T19:49:25.906Z,-0.30
2022-11-29T19:52:10.737Z,-0.29
2022-11-29T19:54:57.513Z,-0.30
2022-11-29T19:57:42.391Z,-0.29
2022-11-29T20:00:27.585Z,-0.31
2022-11-29T20:03:12.599Z,-0.31
2022-11-29T20:05:57.360Z,-0.31
2022-11-29T20:08:43.419Z,-0.34
2022-11-29T20:11:28.422Z,-0.36
2022-11-29T20:14:13.953Z,-0.35
2022-11-29T20:16:58.871Z,-0.36
2022-11-29T20:19:44.073Z,-0.36
2022-11-29T20:22:29.178Z,-0.32
2022-11-29T20:25:14.034Z,-0.31
2022-11-29T20:27:59.184Z,-0.32
2022-11-29T20:30:44.018Z,-0.31
2022-11-29T20:33:28.652Z,-0.35
2022-11-29T20:36:32.407Z,-0.34
2022-11-29T20:39:28.261Z,-0.34
2022-11-29T20:42:28.598Z,-0.33
2022-11-29T20:45:15.225Z,-0.34
2022-11-29T20:48:11.420Z,-0.34
2022-11-29T20:50:59.255Z,-0.34
2022-11-29T20:53:45.583Z,-0.33
2022-11-29T20:56:30.192Z,-0.32
2022-11-29T20:59:14.698Z,-0.29
2022-11-29T21:02:00.458Z,-0.28
2022-11-29T21:04:45.534Z,-0.30
2022-11-29T21:07:30.647Z,-0.29
2022-11-29T21:10:15.726Z,-0.32
2022-11-29T21:13:00.452Z,-0.29
2022-11-29T21:15:46.071Z,-0.31
2022-11-29T21:18:32.013Z,-0.34
2022-11-29T21:21:52.393Z,-0.32
2022-11-29T21:24:52.368Z,-0.32
2022-11-29T21:27:37.381Z,-0.32
2022-11-29T21:30:23.147Z,-0.30
2022-11-29T21:33:08.916Z,-0.32
2022-11-29T21:35:57.519Z,-0.32
2022-11-29T21:38:42.358Z,-0.32
2022-11-29T21:41:27.243Z,-0.31
2022-11-29T21:44:12.102Z,-0.32
2022-11-29T21:46:56.898Z,-0.33
2022-11-29T21:49:41.972Z,-0.32
2022-11-29T21:52:26.698Z,-0.29
2022-11-29T21:55:11.538Z,-0.30
2022-11-29T21:57:56.327Z,-0.30
2022-11-29T22:00:42.370Z,-0.32
2022-11-29T22:03:27.462Z,-0.32
2022-11-29T22:06:13.586Z,-0.29
2022-11-29T22:08:59.364Z,-0.32
2022-11-29T22:11:43.991Z,-0.37
2022-11-29T22:14:28.833Z,-0.37
2022-11-29T22:17:13.377Z,-0.37
2022-11-29T22:19:58.382Z,-0.37
2022-11-29T22:22:43.090Z,-0.40
2022-11-29T22:25:27.729Z,-0.42
2022-11-29T22:28:12.602Z,-0.41
2022-11-29T22:31:08.413Z,-0.41
2022-11-29T22:33:54.524Z,-0.39
2022-11-29T22:36:40.180Z,-0.42
2022-11-29T22:39:25.370Z,-0.40
2022-11-29T22:42:10.251Z,-0.39
2022-11-29T22:44:55.180Z,-0.38
2022-11-29T22:47:39.615Z,-0.38
2022-11-29T22:50:24.958Z,-0.40
2022-11-29T22:53:09.620Z,-0.41
2022-11-29T22:56:01.144Z,-0.41
2022-11-29T22:58:45.953Z,-0.42
2022-11-29T23:01:31.716Z,-0.41
2022-11-29T23:04:16.652Z,-0.42
2022-11-29T23:07:01.245Z,-0.44
2022-11-29T23:09:45.989Z,-0.44
2022-11-29T23:12:30.644Z,-0.43
2022-11-29T23:15:15.681Z,-0.46
2022-11-29T23:18:00.253Z,-0.47
2022-11-29T23:20:45.126Z,-0.48
2022-11-29T23:23:30.570Z,-0.47
2022-11-29T23:26:24.876Z,-0.47
2022-11-29T23:29:12.422Z,-0.46
2022-11-29T23:31:57.057Z,-0.47
2022-11-29T23:34:41.916Z,-0.46
2022-11-29T23:37:26.480Z,-0.48
2022-11-29T23:40:11.500Z,-0.48
2022-11-29T23:42:56.368Z,-0.49
2022-11-29T23:45:41.506Z,-0.47
2022-11-29T23:48:26.571Z,-0.48
2022-11-29T23:51:12.539Z,-0.45
2022-11-29T23:53:57.513Z,-0.44
2022-11-29T23:56:42.340Z,-0.47
2022-11-29T23:59:27.398Z,-0.47
